createdAt,value
2022-10-04T00:01:09.273Z,13.40
2022-10-04T00:03:52.365Z,13.50
2022-10-04T00:06:25.998Z,13.50
2022-10-04T00:09:00.314Z,13.60
2022-10-04T00:11:38.098Z,13.60
2022-10-04T00:14:16.398Z,13.60
2022-10-04T00:16:44.372Z,13.60
2022-10-04T00:19:20.555Z,13.60
2022-10-04T00:21:59.984Z,13.70
2022-10-04T00:24:28.275Z,13.70
2022-10-04T00:27:21.823Z,13.70
2022-10-04T00:30:03.860Z,13.80
2022-10-04T00:32:42.298Z,13.80
2022-10-04T00:35:27.616Z,13.90
2022-10-04T00:38:14.995Z,13.90
2022-10-04T00:40:55.421Z,13.90
2022-10-04T00:43:37.811Z,13.90
2022-10-04T00:46:21.480Z,13.90
2022-10-04T00:49:02.883Z,13.90
2022-10-04T00:51:29.763Z,13.90
2022-10-04T00:54:24.076Z,13.90
2022-10-04T00:56:56.091Z,13.90
2022-10-04T00:59:41.973Z,13.90
2022-10-04T01:02:46.127Z,13.90
2022-10-04T01:05:28.480Z,14.00
2022-10-04T01:08:07.213Z,13.90
2022-10-04T01:10:47.512Z,13.90
2022-10-04T01:13:19.278Z,13.90
2022-10-04T01:16:01.273Z,13.90
2022-10-04T01:18:31.715Z,13.90
2022-10-04T01:21:19.910Z,13.90
2022-10-04T01:23:49.727Z,13.90
2022-10-04T01:26:46.063Z,13.90
2022-10-04T01:29:17.575Z,14.00
2022-10-04T01:31:50.236Z,14.00
2022-10-04T01:34:19.566Z,14.10
2022-10-04T01:36:48.813Z,14.00
2022-10-04T01:39:17.768Z,14.10
2022-10-04T01:42:00.190Z,14.20
2022-10-04T01:44:56.510Z,14.30
2022-10-04T01:47:48.684Z,14.50
2022-10-04T01:50:22.019Z,14.50
2022-10-04T01:52:53.779Z,14.60
2022-10-04T01:55:26.817Z,14.70
2022-10-04T01:58:15.009Z,14.70
2022-10-04T02:00:48.938Z,14.70
2022-10-04T02:03:25.404Z,14.70
2022-10-04T02:05:57.645Z,14.70
2022-10-04T02:08:29.458Z,14.60
2022-10-04T02:10:57.595Z,14.70
2022-10-04T02:13:29.551Z,14.70
2022-10-04T02:15:58.586Z,14.80
2022-10-04T02:18:27.097Z,14.80
2022-10-04T02:20:55.226Z,14.90
2022-10-04T02:23:23.942Z,15.00
2022-10-04T02:25:52.063Z,15.00
2022-10-04T02:28:19.321Z,15.00
2022-10-04T02:31:09.689Z,14.90
2022-10-04T02:33:45.497Z,14.90
2022-10-04T02:36:13.992Z,14.90
2022-10-04T02:39:16.045Z,15.00
2022-10-04T02:42:02.753Z,15.00
2022-10-04T02:44:56.653Z,15.00
2022-10-04T02:47:29.616Z,15.00
2022-10-04T02:50:06.408Z,15.10
2022-10-04T02:52:55.313Z,15.10
2022-10-04T02:55:29.565Z,15.10
2022-10-04T02:57:58.483Z,15.20
2022-10-04T03:00:31.608Z,15.10
2022-10-04T03:03:28.234Z,15.20
2022-10-04T03:05:58.205Z,15.10
2022-10-04T03:08:26.495Z,15.10
2022-10-04T03:10:53.547Z,15.10
2022-10-04T03:13:21.583Z,15.10
2022-10-04T03:15:50.344Z,15.10
2022-10-04T03:18:19.142Z,15.10
2022-10-04T03:20:46.318Z,15.10
2022-10-04T03:23:17.463Z,15.00
2022-10-04T03:25:47.207Z,14.90
2022-10-04T03:28:14.198Z,14.90
2022-10-04T03:30:45.697Z,14.80
2022-10-04T03:33:19.565Z,14.70
2022-10-04T03:35:49.191Z,14.70
2022-10-04T03:38:18.068Z,14.70
2022-10-04T03:40:53.215Z,14.70
2022-10-04T03:43:24.428Z,14.70
2022-10-04T03:45:52.482Z,14.70
2022-10-04T03:48:29.202Z,14.60
2022-10-04T03:50:56.635Z,14.70
2022-10-04T03:53:43.521Z,14.60
2022-10-04T03:56:23.231Z,14.70
2022-10-04T03:58:51.662Z,14.70
2022-10-04T04:01:37.862Z,14.70
2022-10-04T04:04:22.300Z,14.70
2022-10-04T04:06:56.112Z,14.80
2022-10-04T04:09:34.719Z,14.80
2022-10-04T04:12:03.590Z,14.80
2022-10-04T04:14:30.569Z,14.80
2022-10-04T04:17:27.367Z,14.80
2022-10-04T04:20:11.983Z,14.80
2022-10-04T04:22:41.870Z,14.70
2022-10-04T04:25:14.861Z,14.70
2022-10-04T04:27:43.817Z,14.70
2022-10-04T04:30:16.915Z,14.70
2022-10-04T04:32:50.207Z,14.70
2022-10-04T04:35:32.719Z,14.70
2022-10-04T04:38:14.346Z,14.70
2022-10-04T04:40:41.647Z,14.70
2022-10-04T04:43:14.326Z,14.80
2022-10-04T04:45:41.651Z,14.80
2022-10-04T04:48:13.719Z,14.80
2022-10-04T04:50:41.779Z,14.80
2022-10-04T04:53:28.956Z,14.80
2022-10-04T04:56:10.206Z,14.80
2022-10-04T04:58:46.632Z,14.80
2022-10-04T05:01:36.164Z,14.80
2022-10-04T05:04:12.628Z,14.80
2022-10-04T05:06:46.505Z,14.80
2022-10-04T05:09:34.796Z,14.80
2022-10-04T05:12:17.050Z,14.80
2022-10-04T05:14:54.600Z,14.80
2022-10-04T05:17:34.573Z,14.90
2022-10-04T05:20:02.737Z,14.90
2022-10-04T05:22:31.438Z,14.90
2022-10-04T05:25:02.717Z,15.00
2022-10-04T05:27:35.557Z,15.00
2022-10-04T05:30:11.444Z,15.00
2022-10-04T05:33:04.977Z,15.00
2022-10-04T05:35:48.617Z,15.00
2022-10-04T05:38:30.888Z,15.00
2022-10-04T05:41:04.167Z,15.10
2022-10-04T05:43:37.402Z,15.00
2022-10-04T05:46:25.249Z,15.00
2022-10-04T05:49:01.214Z,15.10
2022-10-04T05:51:37.726Z,15.10
2022-10-04T05:54:05.729Z,15.00
2022-10-04T05:56:55.324Z,15.10
2022-10-04T05:59:48.836Z,15.10
2022-10-04T06:02:42.401Z,15.10
2022-10-04T06:05:35.924Z,15.10
2022-10-04T06:08:24.270Z,15.10
2022-10-04T06:10:57.638Z,15.10
2022-10-04T06:13:39.144Z,15.10
2022-10-04T06:16:32.082Z,15.00
2022-10-04T06:19:24.282Z,15.10
2022-10-04T06:21:54.230Z,15.10
2022-10-04T06:24:37.370Z,15.10
2022-10-04T06:27:19.763Z,15.10
2022-10-04T06:30:04.961Z,15.10
2022-10-04T06:33:26.654Z,15.10
2022-10-04T06:36:18.469Z,15.10
2022-10-04T06:39:12.824Z,15.10
2022-10-04T06:42:03.267Z,15.00
2022-10-04T06:44:48.015Z,15.00
2022-10-04T06:47:47.620Z,15.00
2022-10-04T06:50:26.370Z,15.00
2022-10-04T06:53:30.890Z,15.00
2022-10-04T06:56:15.088Z,15.00
2022-10-04T06:59:30.228Z,15.00
2022-10-04T07:02:03.945Z,15.00
2022-10-04T07:05:07.167Z,15.00
2022-10-04T07:07:35.947Z,15.00
2022-10-04T07:10:27.235Z,15.00
2022-10-04T07:13:10.797Z,14.90
2022-10-04T07:16:10.257Z,14.80
2022-10-04T07:19:09.683Z,14.70
2022-10-04T07:21:46.799Z,14.70
2022-10-04T07:24:24.959Z,14.60
2022-10-04T07:26:54.186Z,14.60
2022-10-04T07:29:28.666Z,14.60
2022-10-04T07:32:04.445Z,14.60
2022-10-04T07:34:37.373Z,14.50
2022-10-04T07:37:10.589Z,14.50
2022-10-04T07:39:44.567Z,14.40
2022-10-04T07:42:36.724Z,14.40
2022-10-04T07:45:23.508Z,14.40
2022-10-04T07:47:51.503Z,14.40
2022-10-04T07:50:34.398Z,14.40
2022-10-04T07:53:30.695Z,14.40
2022-10-04T07:56:15.244Z,14.40
2022-10-04T07:58:47.530Z,14.30
2022-10-04T08:01:30.161Z,14.30
2022-10-04T08:04:34.631Z,14.30
2022-10-04T08:07:05.415Z,14.30
2022-10-04T08:09:41.618Z,14.30
2022-10-04T08:12:21.460Z,14.30
2022-10-04T08:14:54.479Z,14.20
2022-10-04T08:17:50.375Z,14.30
2022-10-04T08:20:38.644Z,14.30
2022-10-04T08:23:08.577Z,14.30
2022-10-04T08:25:47.303Z,14.20
2022-10-04T08:28:47.913Z,14.20
2022-10-04T08:31:39.683Z,14.20
2022-10-04T08:34:21.667Z,14.30
2022-10-04T08:37:30.185Z,14.30
2022-10-04T08:40:33.338Z,14.30
2022-10-04T08:43:25.835Z,14.30
2022-10-04T08:46:14.028Z,14.40
2022-10-04T08:48:52.911Z,14.40
2022-10-04T08:51:22.612Z,14.40
2022-10-04T08:53:49.471Z,14.40
2022-10-04T08:56:54.098Z,14.40
2022-10-04T08:59:59.133Z,14.50
2022-10-04T09:02:41.765Z,14.50
2022-10-04T09:05:17.715Z,14.50
2022-10-04T09:08:07.803Z,14.50
2022-10-04T09:10:42.414Z,14.50
2022-10-04T09:13:32.384Z,14.50
2022-10-04T09:16:25.883Z,14.50
2022-10-04T09:19:47.447Z,14.50
2022-10-04T09:22:37.652Z,14.50
2022-10-04T09:25:23.215Z,14.60
2022-10-04T09:28:16.570Z,14.60
2022-10-04T09:30:53.426Z,14.60
2022-10-04T09:33:44.908Z,14.70
2022-10-04T09:36:17.839Z,14.70
2022-10-04T09:39:25.103Z,14.70
2022-10-04T09:42:25.033Z,14.80
2022-10-04T09:45:18.119Z,14.70
2022-10-04T09:47:51.582Z,14.80
2022-10-04T09:50:24.318Z,14.80
2022-10-04T09:53:12.795Z,14.80
2022-10-04T09:55:54.977Z,14.80
2022-10-04T09:58:51.662Z,14.90
2022-10-04T10:01:18.732Z,14.90
2022-10-04T10:04:18.226Z,15.00
2022-10-04T10:06:48.641Z,15.00
2022-10-04T10:09:47.624Z,15.00
2022-10-04T10:13:31.811Z,15.00
2022-10-04T10:16:31.103Z,15.10
2022-10-04T10:19:28.328Z,15.10
2022-10-04T10:22:01.396Z,15.20
2022-10-04T10:25:03.319Z,15.20
2022-10-04T10:27:52.493Z,15.10
2022-10-04T10:30:57.636Z,15.20
2022-10-04T10:33:43.608Z,15.10
2022-10-04T10:36:17.273Z,15.10
2022-10-04T10:38:53.041Z,15.10
2022-10-04T10:41:35.823Z,15.10
2022-10-04T10:44:33.495Z,15.10
2022-10-04T10:47:18.990Z,15.10
2022-10-04T10:50:18.802Z,15.10
2022-10-04T10:53:07.652Z,15.10
2022-10-04T10:56:05.067Z,15.00
2022-10-04T10:58:34.940Z,15.00
2022-10-04T11:01:49.762Z,15.00
2022-10-04T11:04:54.825Z,15.00
2022-10-04T11:07:47.414Z,15.00
2022-10-04T11:10:42.654Z,15.00
2022-10-04T11:13:28.470Z,15.00
2022-10-04T11:16:34.403Z,15.10
2022-10-04T11:19:29.251Z,15.10
2022-10-04T11:22:08.298Z,15.10
2022-10-04T11:25:03.091Z,15.10
2022-10-04T11:27:35.468Z,15.20
2022-10-04T11:30:26.631Z,15.20
2022-10-04T11:33:28.764Z,15.20
2022-10-04T11:36:17.197Z,15.10
2022-10-04T11:38:48.567Z,14.70
2022-10-04T11:41:28.875Z,14.30
2022-10-04T11:44:17.654Z,14.00
2022-10-04T11:47:08.165Z,13.90
2022-10-04T11:49:44.168Z,13.80
2022-10-04T11:52:30.691Z,13.80
2022-10-04T11:55:00.297Z,13.90
2022-10-04T11:57:53.683Z,13.90
2022-10-04T12:00:23.025Z,14.00
2022-10-04T12:03:02.760Z,14.10
2022-10-04T12:06:01.302Z,14.10
2022-10-04T12:08:48.976Z,14.20
2022-10-04T12:11:21.540Z,14.10
2022-10-04T12:13:48.396Z,14.20
2022-10-04T12:16:47.491Z,14.10
2022-10-04T12:19:39.879Z,14.10
2022-10-04T12:22:22.506Z,14.10
2022-10-04T12:25:01.641Z,14.10
2022-10-04T12:27:56.410Z,14.20
2022-10-04T12:30:30.915Z,14.40
2022-10-04T12:33:26.545Z,14.40
2022-10-04T12:36:21.797Z,14.40
2022-10-04T12:39:03.465Z,14.50
2022-10-04T12:41:54.345Z,14.50
2022-10-04T12:44:30.232Z,14.50
2022-10-04T12:47:18.923Z,14.50
2022-10-04T12:49:56.438Z,14.50
2022-10-04T12:52:27.321Z,14.40
2022-10-04T12:55:10.650Z,14.40
2022-10-04T12:58:00.450Z,14.50
2022-10-04T13:00:34.705Z,14.40
2022-10-04T13:03:26.603Z,14.40
2022-10-04T13:06:16.431Z,14.50
2022-10-04T13:08:56.503Z,14.40
2022-10-04T13:12:20.033Z,14.30
2022-10-04T13:15:11.148Z,14.30
2022-10-04T13:17:50.140Z,14.30
2022-10-04T13:20:26.387Z,14.20
2022-10-04T13:23:05.207Z,14.20
2022-10-04T13:26:03.844Z,14.30
2022-10-04T13:28:53.128Z,14.30
2022-10-04T13:31:38.173Z,14.40
2022-10-04T13:34:26.710Z,14.50
2022-10-04T13:37:20.542Z,14.50
2022-10-04T13:39:50.358Z,14.50
2022-10-04T13:42:48.824Z,14.60
2022-10-04T13:45:43.497Z,14.80
2022-10-04T13:48:26.201Z,14.80
2022-10-04T13:51:24.750Z,14.60
2022-10-04T13:54:50.237Z,14.60
2022-10-04T13:57:39.932Z,14.60
2022-10-04T14:00:20.514Z,14.50
2022-10-04T14:03:11.167Z,14.60
2022-10-04T14:05:44.034Z,14.50
2022-10-04T14:08:10.915Z,14.60
2022-10-04T14:11:13.632Z,14.40
2022-10-04T14:14:05.826Z,14.30
2022-10-04T14:16:44.371Z,14.10
2022-10-04T14:19:39.302Z,14.00
2022-10-04T14:22:22.624Z,13.90
2022-10-04T14:25:21.214Z,13.80
2022-10-04T14:28:14.431Z,13.70
2022-10-04T14:31:23.998Z,13.70
2022-10-04T14:34:04.007Z,13.60
2022-10-04T14:36:50.769Z,13.70
2022-10-04T14:39:55.168Z,13.70
2022-10-04T14:42:40.400Z,13.70
2022-10-04T14:45:52.055Z,13.60
2022-10-04T14:48:43.520Z,13.70
2022-10-04T14:51:16.409Z,13.60
2022-10-04T14:54:08.211Z,13.70
2022-10-04T14:56:51.181Z,13.70
2022-10-04T14:59:38.228Z,13.70
2022-10-04T15:02:31.825Z,13.70
2022-10-04T15:05:31.714Z,13.70
2022-10-04T15:08:25.093Z,13.60
2022-10-04T15:10:52.883Z,13.60
2022-10-04T15:13:41.646Z,13.60
2022-10-04T15:16:53.105Z,13.50
2022-10-04T15:19:26.479Z,13.50
2022-10-04T15:21:56.233Z,13.50
2022-10-04T15:24:42.646Z,13.50
2022-10-04T15:27:33.707Z,13.50
2022-10-04T15:30:09.452Z,13.50
2022-10-04T15:32:51.238Z,13.40
2022-10-04T15:35:25.259Z,13.40
2022-10-04T15:38:29.475Z,13.40
2022-10-04T15:41:06.499Z,13.40
2022-10-04T15:43:43.971Z,13.40
2022-10-04T15:46:42.302Z,13.30
2022-10-04T15:49:49.288Z,13.40
2022-10-04T15:52:41.071Z,13.30
2022-10-04T15:55:13.855Z,13.30
2022-10-04T15:58:05.320Z,13.30
2022-10-04T16:00:38.312Z,13.30
2022-10-04T16:03:14.064Z,13.20
2022-10-04T16:06:08.574Z,13.20
2022-10-04T16:09:00.425Z,13.10
2022-10-04T16:11:30.092Z,13.10
2022-10-04T16:14:15.770Z,13.10
2022-10-04T16:17:01.704Z,13.00
2022-10-04T16:20:02.083Z,13.00
2022-10-04T16:22:34.239Z,13.00
2022-10-04T16:25:19.704Z,13.00
2022-10-04T16:27:56.344Z,12.90
2022-10-04T16:30:47.147Z,12.90
2022-10-04T16:33:36.703Z,12.80
2022-10-04T16:36:22.347Z,12.80
2022-10-04T16:39:13.323Z,12.70
2022-10-04T16:41:45.655Z,12.70
2022-10-04T16:44:49.346Z,12.70
2022-10-04T16:47:29.501Z,12.60
2022-10-04T16:49:59.561Z,12.60
2022-10-04T16:53:01.131Z,12.60
2022-10-04T16:55:46.824Z,12.50
2022-10-04T16:58:29.745Z,12.40
2022-10-04T17:01:25.857Z,12.40
2022-10-04T17:04:14.067Z,12.40
2022-10-04T17:07:23.288Z,12.40
2022-10-04T17:10:27.558Z,12.40
2022-10-04T17:12:58.258Z,12.40
2022-10-04T17:15:36.738Z,12.30
2022-10-04T17:18:19.741Z,12.30
2022-10-04T17:20:58.966Z,12.40
2022-10-04T17:24:03.709Z,12.30
2022-10-04T17:26:47.038Z,12.30
2022-10-04T17:29:54.322Z,12.30
2022-10-04T17:33:11.919Z,12.30
2022-10-04T17:36:07.111Z,12.20
2022-10-04T17:38:56.786Z,12.10
2022-10-04T17:42:05.455Z,12.10
2022-10-04T17:45:09.592Z,12.10
2022-10-04T17:48:12.882Z,12.00
2022-10-04T17:51:09.030Z,11.80
2022-10-04T17:53:59.115Z,11.70
2022-10-04T17:56:33.066Z,11.60
2022-10-04T17:59:05.767Z,11.60
2022-10-04T18:01:49.576Z,11.50
2022-10-04T18:04:30.545Z,11.50
2022-10-04T18:07:18.907Z,11.40
2022-10-04T18:09:48.707Z,11.40
2022-10-04T18:12:44.733Z,11.40
2022-10-04T18:15:33.320Z,11.30
2022-10-04T18:18:22.375Z,11.30
2022-10-04T18:20:57.969Z,11.30
2022-10-04T18:23:30.118Z,11.30
2022-10-04T18:26:10.964Z,11.30
2022-10-04T18:28:38.614Z,11.30
2022-10-04T18:31:39.063Z,11.30
2022-10-04T18:34:37.715Z,11.20
2022-10-04T18:37:20.155Z,11.20
2022-10-04T18:39:53.227Z,11.20
2022-10-04T18:42:30.602Z,11.20
2022-10-04T18:45:20.533Z,11.20
2022-10-04T18:47:50.809Z,11.20
2022-10-04T18:50:20.475Z,11.20
2022-10-04T18:53:08.317Z,11.30
2022-10-04T18:55:43.835Z,11.30
2022-10-04T18:58:43.513Z,11.20
2022-10-04T19:01:50.748Z,11.20
2022-10-04T19:04:35.075Z,11.10
2022-10-04T19:07:32.832Z,11.10
2022-10-04T19:10:07.083Z,11.10
2022-10-04T19:12:46.793Z,11.00
2022-10-04T19:15:25.710Z,10.90
2022-10-04T19:18:01.572Z,10.80
2022-10-04T19:20:51.487Z,10.70
2022-10-04T19:23:49.252Z,10.70
2022-10-04T19:26:32.275Z,10.60
2022-10-04T19:29:25.075Z,10.60
2022-10-04T19:32:05.596Z,10.70
2022-10-04T19:34:44.530Z,10.70
2022-10-04T19:37:27.754Z,10.80
2022-10-04T19:40:15.465Z,10.70
2022-10-04T19:43:10.298Z,10.60
2022-10-04T19:46:02.331Z,10.60
2022-10-04T19:48:38.899Z,10.60
2022-10-04T19:51:16.228Z,10.70
2022-10-04T19:53:45.663Z,10.80
2022-10-04T19:56:21.977Z,10.70
2022-10-04T19:59:09.240Z,10.60
2022-10-04T20:01:36.809Z,10.40
2022-10-04T20:04:33.988Z,10.40
2022-10-04T20:07:03.797Z,10.40
2022-10-04T20:09:36.660Z,10.50
2022-10-04T20:12:05.492Z,10.60
2022-10-04T20:14:32.358Z,10.60
2022-10-04T20:17:02.225Z,10.70
2022-10-04T20:19:29.058Z,10.80
2022-10-04T20:22:18.661Z,10.80
2022-10-04T20:24:45.568Z,10.80
2022-10-04T20:27:28.601Z,10.80
2022-10-04T20:29:57.081Z,10.80
2022-10-04T20:32:26.684Z,10.70
2022-10-04T20:34:55.167Z,10.60
2022-10-04T20:37:42.224Z,10.60
2022-10-04T20:40:09.354Z,10.70
2022-10-04T20:42:38.326Z,10.70
2022-10-04T20:45:11.090Z,10.70
2022-10-04T20:47:48.155Z,10.60
2022-10-04T20:50:24.096Z,10.50
2022-10-04T20:52:54.501Z,10.40
2022-10-04T20:55:28.335Z,10.40
2022-10-04T20:57:58.405Z,10.30
2022-10-04T21:00:27.502Z,10.20
2022-10-04T21:03:21.904Z,10.20
2022-10-04T21:06:02.746Z,10.20
2022-10-04T21:08:30.321Z,10.10
2022-10-04T21:11:21.084Z,10.10
2022-10-04T21:13:58.831Z,10.10
2022-10-04T21:16:50.460Z,10.10
2022-10-04T21:19:33.210Z,10.10
2022-10-04T21:22:05.111Z,10.10
2022-10-04T21:24:42.447Z,10.20
2022-10-04T21:27:26.196Z,10.10
2022-10-04T21:29:53.803Z,10.10
2022-10-04T21:32:25.087Z,10.10
2022-10-04T21:34:54.141Z,10.20
2022-10-04T21:37:21.846Z,10.10
2022-10-04T21:39:48.891Z,10.20
2022-10-04T21:42:16.137Z,10.20
2022-10-04T21:44:43.307Z,10.20
2022-10-04T21:47:10.668Z,10.30
2022-10-04T21:49:37.757Z,10.30
2022-10-04T21:52:05.028Z,10.40
2022-10-04T21:54:32.131Z,10.40
2022-10-04T21:56:59.477Z,10.30
2022-10-04T21:59:26.500Z,10.30
2022-10-04T22:01:53.536Z,10.30
2022-10-04T22:04:20.558Z,10.20
2022-10-04T22:06:48.311Z,10.20
2022-10-04T22:09:15.608Z,10.20
2022-10-04T22:11:42.566Z,10.20
2022-10-04T22:14:09.899Z,10.30
2022-10-04T22:16:36.907Z,10.20
2022-10-04T22:19:04.383Z,10.30
2022-10-04T22:21:31.339Z,10.20
2022-10-04T22:23:58.643Z,10.20
2022-10-04T22:26:26.793Z,10.10
2022-10-04T22:28:55.397Z,10.00
2022-10-04T22:31:26.679Z,10.00
2022-10-04T22:33:55.627Z,10.10
2022-10-04T22:36:34.014Z,10.10
2022-10-04T22:39:09.366Z,10.20
2022-10-04T22:41:42.066Z,10.10
2022-10-04T22:44:18.071Z,10.20
2022-10-04T22:46:48.839Z,10.20
2022-10-04T22:49:19.765Z,10.20
2022-10-04T22:51:49.015Z,10.30
2022-10-04T22:54:21.886Z,10.20
2022-10-04T22:56:50.753Z,10.10
2022-10-04T22:59:19.864Z,10.20
2022-10-04T23:01:47.757Z,10.10
2022-10-04T23:04:23.990Z,10.10
2022-10-04T23:06:52.166Z,10.00
2022-10-04T23:09:20.013Z,10.00
2022-10-04T23:11:47.078Z,9.90
2022-10-04T23:14:14.059Z,10.00
2022-10-04T23:16:40.968Z,9.90
2022-10-04T23:19:13.672Z,9.90
2022-10-04T23:21:44.135Z,9.90
2022-10-04T23:24:20.046Z,9.90
2022-10-04T23:26:50.018Z,9.90
2022-10-04T23:29:21.378Z,9.90
2022-10-04T23:31:49.883Z,9.90
2022-10-04T23:34:23.759Z,9.90
2022-10-04T23:36:52.021Z,9.80
2022-10-04T23:39:25.067Z,9.80
2022-10-04T23:41:54.054Z,9.90
2022-10-04T23:44:24.499Z,9.90
2022-10-04T23:46:52.086Z,9.80
2022-10-04T23:49:21.339Z,9.80
2022-10-04T23:51:50.178Z,9.80
2022-10-04T23:54:20.411Z,9.80
2022-10-04T23:56:48.882Z,9.80
2022-10-04T23:59:22.006Z,9.80
